Time;durP1;ratioP1;P1;durP2;ratioP2;P2;SDS_P1;SDS_P2;PMS_P1;PMS_P2;Temp;Humidity;BMP_temperature;BMP_pressure;BME280_temperature;BME280_humidity;BME280_pressure;Samples;Min_cycle;Max_cycle;Signal;HPM_P1;HPM_P2
2022/06/07 00:01:04;;;;;;;12.52;6.35;;;12.30;99.90;;;;;;5046631;28;20047;-74
2022/06/07 00:03:29;;;;;;;11.82;6.45;;;12.40;99.90;;;;;;5039388;28;20041;-74
2022/06/07 00:05:56;;;;;;;11.90;6.45;;;12.40;99.90;;;;;;5045268;28;20085;-74
2022/06/07 00:08:22;;;;;;;16.35;6.35;;;12.40;99.90;;;;;;5030742;28;20136;-74
2022/06/07 00:10:49;;;;;;;12.05;6.00;;;12.50;99.90;;;;;;5048222;28;20060;-74
2022/06/07 00:13:16;;;;;;;9.45;5.47;;;12.40;99.90;;;;;;5046244;28;20537;-74
2022/06/07 00:15:43;;;;;;;12.50;6.05;;;12.40;99.90;;;;;;5030315;28;20025;-74
2022/06/07 00:18:10;;;;;;;15.77;6.47;;;12.40;99.90;;;;;;5028536;28;20037;-73
2022/06/07 00:20:38;;;;;;;15.02;6.10;;;12.40;99.90;;;;;;5047469;28;20037;-73
2022/06/07 00:23:10;;;;;;;12.45;5.63;;;12.40;99.90;;;;;;5029677;28;20071;-75
2022/06/07 00:25:36;;;;;;;8.93;5.20;;;12.40;99.90;;;;;;5030173;28;20702;-74
2022/06/07 00:28:02;;;;;;;10.13;5.30;;;12.40;99.90;;;;;;5029966;28;20032;-75
2022/06/07 00:30:30;;;;;;;12.60;5.97;;;12.50;99.90;;;;;;5054996;28;20423;-73
2022/06/07 00:32:56;;;;;;;9.52;5.00;;;12.50;99.90;;;;;;5026074;28;20032;-73
2022/06/07 00:35:21;;;;;;;12.13;5.95;;;12.50;99.90;;;;;;5022569;28;20052;-75
2022/06/07 00:37:48;;;;;;;11.88;6.57;;;12.40;99.90;;;;;;5021650;28;20033;-73
2022/06/07 00:40:14;;;;;;;10.05;5.32;;;12.40;99.90;;;;;;5028999;28;20115;-75
2022/06/07 00:42:41;;;;;;;10.20;5.32;;;12.50;99.90;;;;;;5030343;28;20517;-73
2022/06/07 00:45:10;;;;;;;9.32;4.85;;;12.50;99.90;;;;;;5047060;28;20174;-74
2022/06/07 00:47:36;;;;;;;8.27;5.13;;;12.60;99.90;;;;;;5028214;28;20040;-74
2022/06/07 00:50:12;;;;;;;10.95;5.22;;;12.60;99.90;;;;;;5048420;28;20037;-75
2022/06/07 00:52:38;;;;;;;12.88;5.70;;;12.70;99.90;;;;;;5029176;28;20123;-74
2022/06/07 00:55:08;;;;;;;10.73;4.68;;;12.80;99.90;;;;;;5046324;28;20054;-74
2022/06/07 00:57:34;;;;;;;10.40;4.15;;;12.90;99.90;;;;;;5048217;28;20071;-73
2022/06/07 01:00:00;;;;;;;8.70;4.55;;;12.90;99.90;;;;;;5046608;28;20116;-74
2022/06/07 01:02:26;;;;;;;10.75;5.03;;;13.00;99.90;;;;;;5044791;28;20049;-74
2022/06/07 01:04:52;;;;;;;10.40;4.43;;;13.10;99.90;;;;;;5047051;28;20032;-74
2022/06/07 01:12:48;;;;;;;13.93;5.18;;;13.20;99.90;;;;;;5047983;28;20095;-74
2022/06/07 01:15:13;;;;;;;10.10;5.18;;;13.30;99.90;;;;;;5027982;28;20029;-74
2022/06/07 01:17:39;;;;;;;12.30;5.70;;;13.30;99.90;;;;;;5044990;28;20584;-73
2022/06/07 01:20:05;;;;;;;11.07;6.30;;;13.20;99.90;;;;;;5046869;28;20463;-73
2022/06/07 01:22:33;;;;;;;9.93;5.45;;;13.10;99.90;;;;;;5046848;28;20521;-74
2022/06/07 01:24:59;;;;;;;12.23;6.30;;;13.10;99.90;;;;;;5045179;28;20162;-76
2022/06/07 01:27:25;;;;;;;8.50;5.70;;;13.00;99.90;;;;;;5046576;28;20033;-73
2022/06/07 01:29:51;;;;;;;14.50;5.93;;;13.00;99.90;;;;;;5029449;28;20040;-73
2022/06/07 01:32:17;;;;;;;9.63;5.38;;;13.10;99.90;;;;;;5044586;28;20045;-75
2022/06/07 01:34:44;;;;;;;10.98;5.47;;;13.20;99.90;;;;;;5024119;28;20489;-72
2022/06/07 01:37:12;;;;;;;15.10;6.20;;;13.20;99.90;;;;;;5044573;28;20734;-75
2022/06/07 01:42:23;;;;;;;14.02;6.78;;;13.30;99.90;;;;;;5044949;28;20077;-75
2022/06/07 01:44:50;;;;;;;12.75;7.22;;;13.30;99.90;;;;;;5028866;28;20049;-75
2022/06/07 01:47:19;;;;;;;12.43;6.97;;;13.30;99.90;;;;;;5024615;28;20032;-74
2022/06/07 01:49:45;;;;;;;9.35;5.07;;;13.30;99.90;;;;;;5045951;28;20399;-74
2022/06/07 01:52:12;;;;;;;11.82;5.75;;;13.20;99.90;;;;;;5045880;28;20028;-75
2022/06/07 01:54:38;;;;;;;10.55;7.05;;;13.20;99.90;;;;;;5027701;28;20472;-75
2022/06/07 01:57:07;;;;;;;12.85;7.47;;;13.20;99.90;;;;;;5047368;28;20032;-73
2022/06/07 01:59:34;;;;;;;11.20;7.38;;;13.20;99.90;;;;;;5045049;28;20033;-74
2022/06/07 02:02:00;;;;;;;10.90;6.30;;;13.20;99.90;;;;;;5015500;28;20068;-74
2022/06/07 02:04:26;;;;;;;11.57;6.93;;;13.20;99.90;;;;;;5043297;28;20032;-75
2022/06/07 02:06:52;;;;;;;11.00;6.85;;;13.10;99.90;;;;;;5046315;28;20449;-72
2022/06/07 02:09:18;;;;;;;13.48;7.35;;;13.10;99.90;;;;;;5036030;28;20033;-75
2022/06/07 02:11:45;;;;;;;13.35;8.25;;;13.00;99.90;;;;;;5044607;28;20111;-74
2022/06/07 02:14:11;;;;;;;11.73;7.70;;;13.00;99.90;;;;;;5026502;28;20407;-74
2022/06/07 02:16:37;;;;;;;14.07;7.90;;;13.00;99.90;;;;;;5043337;28;20390;-74
2022/06/07 02:19:04;;;;;;;11.90;7.10;;;12.90;99.90;;;;;;5047019;28;20040;-76
2022/06/07 02:21:30;;;;;;;13.95;8.65;;;12.90;99.90;;;;;;5027191;28;20057;-74
2022/06/07 02:23:55;;;;;;;13.77;8.77;;;12.90;99.90;;;;;;5046253;28;20064;-75
2022/06/07 02:26:30;;;;;;;10.27;7.47;;;12.90;99.90;;;;;;5042984;28;20183;-74
2022/06/07 02:28:59;;;;;;;15.05;8.13;;;12.90;99.90;;;;;;5030279;28;20078;-77
2022/06/07 02:31:27;;;;;;;15.57;9.15;;;12.90;99.90;;;;;;5025373;28;20048;-75
2022/06/07 02:33:54;;;;;;;14.00;7.72;;;12.80;99.90;;;;;;5045823;28;20497;-75
2022/06/07 02:36:20;;;;;;;14.88;9.65;;;12.80;99.90;;;;;;5026897;28;20033;-73
2022/06/07 02:38:46;;;;;;;16.30;9.43;;;12.80;99.90;;;;;;5044576;28;20594;-73
2022/06/07 02:41:16;;;;;;;12.38;8.68;;;12.90;99.90;;;;;;5027440;28;20785;-74
2022/06/07 02:43:42;;;;;;;16.73;9.20;;;12.80;99.90;;;;;;5042465;28;20041;-74
2022/06/07 02:46:08;;;;;;;13.25;9.38;;;12.80;99.90;;;;;;5025165;28;20057;-73
2022/06/07 02:48:33;;;;;;;15.07;9.93;;;12.80;99.90;;;;;;5024337;28;20648;-72
2022/06/07 02:50:59;;;;;;;14.30;8.40;;;12.90;99.90;;;;;;5028400;28;20112;-74
2022/06/07 02:53:25;;;;;;;15.18;9.60;;;12.90;99.90;;;;;;5024754;28;20041;-73
2022/06/07 02:55:50;;;;;;;20.48;10.55;;;12.90;99.90;;;;;;5026851;28;20503;-74
2022/06/07 02:58:16;;;;;;;17.48;10.48;;;12.80;99.90;;;;;;5024280;28;20033;-74
2022/06/07 03:00:41;;;;;;;19.88;11.55;;;12.80;99.90;;;;;;5027781;28;20041;-74
2022/06/07 03:03:07;;;;;;;17.60;10.35;;;12.80;99.90;;;;;;5029750;28;20464;-74
2022/06/07 03:05:33;;;;;;;16.15;10.70;;;12.80;99.90;;;;;;5024994;28;20068;-74
2022/06/07 03:07:58;;;;;;;14.18;10.32;;;12.90;99.90;;;;;;5029225;28;20032;-77
2022/06/07 03:10:24;;;;;;;15.95;10.63;;;12.80;99.90;;;;;;5030641;28;20030;-74
2022/06/07 03:12:50;;;;;;;17.35;11.45;;;12.80;99.90;;;;;;5026505;28;20038;-74
2022/06/07 03:15:16;;;;;;;17.35;10.30;;;12.90;99.90;;;;;;5029341;28;20034;-75
2022/06/07 03:17:42;;;;;;;15.77;10.27;;;12.90;99.90;;;;;;5026699;28;20056;-75
2022/06/07 03:20:09;;;;;;;20.80;11.43;;;12.90;99.90;;;;;;5027895;28;20411;-75
2022/06/07 03:22:35;;;;;;;13.43;9.95;;;12.90;99.90;;;;;;5028192;28;20091;-75
2022/06/07 03:25:05;;;;;;;17.55;10.63;;;13.00;99.90;;;;;;5028115;28;20036;-74
2022/06/07 03:27:35;;;;;;;14.52;10.63;;;13.00;99.90;;;;;;5025484;28;20033;-74
2022/06/07 03:30:07;;;;;;;18.33;11.45;;;13.00;99.90;;;;;;5028016;28;20053;-74
2022/06/07 03:32:34;;;;;;;13.95;9.45;;;13.00;99.90;;;;;;5028364;28;20033;-73
2022/06/07 03:34:59;;;;;;;18.40;11.07;;;13.00;99.90;;;;;;5026847;28;20033;-73
2022/06/07 03:37:25;;;;;;;17.25;12.18;;;12.90;99.90;;;;;;5028866;28;20083;-74
2022/06/07 03:39:51;;;;;;;15.27;11.25;;;12.90;99.90;;;;;;5029172;28;20033;-73
2022/06/07 03:42:18;;;;;;;18.45;11.35;;;12.90;99.90;;;;;;5026875;28;20045;-73
2022/06/07 03:44:48;;;;;;;17.85;12.27;;;12.90;99.90;;;;;;5033349;28;20475;-75
2022/06/07 03:47:18;;;;;;;21.30;13.30;;;12.90;99.90;;;;;;5050036;28;20475;-73
2022/06/07 03:49:44;;;;;;;;;;;13.00;99.90;;;;;;5047964;28;20764;-74
2022/06/07 03:52:10;;;;;;;18.40;13.13;;;12.90;99.90;;;;;;5031059;28;19919;-74
2022/06/07 03:54:36;;;;;;;22.30;13.27;;;12.90;99.90;;;;;;5047412;28;20056;-74
2022/06/07 03:57:03;;;;;;;20.58;14.25;;;12.90;99.90;;;;;;5031430;28;20095;-75
2022/06/07 03:59:28;;;;;;;20.15;13.15;;;12.90;99.90;;;;;;5049470;28;20039;-73
2022/06/07 04:01:54;;;;;;;18.20;11.73;;;12.90;99.90;;;;;;5048913;28;20033;-73
2022/06/07 04:04:20;;;;;;;18.38;10.40;;;12.90;99.90;;;;;;5031686;28;20033;-73
2022/06/07 04:09:39;;;;;;;18.85;11.32;;;12.80;99.90;;;;;;5048922;28;20040;-73
2022/06/07 04:12:07;;;;;;;16.88;11.80;;;12.80;99.90;;;;;;5048117;28;20120;-76
2022/06/07 04:14:33;;;;;;;21.30;13.15;;;12.80;99.90;;;;;;5047734;28;20056;-74
2022/06/07 04:16:58;;;;;;;17.63;11.73;;;12.80;99.90;;;;;;5028449;28;20033;-74
2022/06/07 04:19:24;;;;;;;19.17;12.50;;;12.80;99.90;;;;;;5047205;28;20029;-73
2022/06/07 04:21:50;;;;;;;18.15;11.07;;;12.80;99.90;;;;;;5047551;28;20044;-73
2022/06/07 04:24:15;;;;;;;19.05;12.38;;;12.80;99.90;;;;;;5049159;28;20037;-73
2022/06/07 04:26:41;;;;;;;19.50;13.93;;;12.80;99.90;;;;;;5048100;28;20033;-73
2022/06/07 04:29:06;;;;;;;20.52;13.88;;;12.80;99.90;;;;;;5047583;28;20029;-73
2022/06/07 04:31:32;;;;;;;23.10;14.07;;;12.90;99.90;;;;;;5047668;28;20110;-73
2022/06/07 04:33:58;;;;;;;18.02;12.85;;;12.90;99.90;;;;;;5041196;28;20069;-73
2022/06/07 04:36:26;;;;;;;18.33;12.55;;;12.90;99.90;;;;;;5038739;28;20057;-73
2022/06/07 04:38:54;;;;;;;21.60;14.15;;;13.00;99.90;;;;;;5029991;28;20032;-72
2022/06/07 04:41:21;;;;;;;19.00;14.43;;;13.00;99.90;;;;;;5025667;28;20723;-75
2022/06/07 04:43:52;;;;;;;23.73;14.68;;;13.00;99.90;;;;;;5045777;28;20025;-74
2022/06/07 04:46:19;;;;;;;19.65;13.52;;;13.10;99.90;;;;;;5048000;28;20415;-74
2022/06/07 04:48:46;;;;;;;21.50;14.32;;;13.10;99.90;;;;;;5048564;28;20120;-74
2022/06/07 04:51:17;;;;;;;20.75;14.90;;;13.10;99.90;;;;;;5046362;28;20120;-75
2022/06/07 04:53:44;;;;;;;24.17;15.25;;;13.20;99.90;;;;;;5029928;28;20045;-74
2022/06/07 04:56:12;;;;;;;19.80;13.80;;;13.20;99.90;;;;;;5048064;28;20052;-75
2022/06/07 04:58:38;;;;;;;22.37;12.90;;;13.20;99.90;;;;;;5056703;28;20059;-75
2022/06/07 05:01:17;;;;;;;21.95;13.32;;;13.30;99.90;;;;;;5046003;28;20737;-74
2022/06/07 05:03:43;;;;;;;21.20;14.18;;;13.30;99.90;;;;;;5030098;28;20494;-74
2022/06/07 05:06:30;;;;;;;15.95;11.45;;;13.40;99.90;;;;;;5046682;28;20036;-73
2022/06/07 05:08:59;;;;;;;19.45;13.00;;;13.40;99.90;;;;;;5026923;28;20033;-74
2022/06/07 05:11:26;;;;;;;19.52;12.82;;;13.40;99.90;;;;;;5030442;28;20069;-73
2022/06/07 05:13:54;;;;;;;16.88;11.82;;;13.50;99.90;;;;;;5044350;28;20036;-74
2022/06/07 05:16:20;;;;;;;22.15;13.75;;;13.40;99.90;;;;;;5045193;28;20035;-74
2022/06/07 05:18:50;;;;;;;19.98;13.23;;;13.50;99.90;;;;;;5045071;28;20151;-75
2022/06/07 05:21:17;;;;;;;18.48;12.55;;;13.50;99.90;;;;;;5047784;28;20036;-75
2022/06/07 05:23:43;;;;;;;17.42;11.80;;;13.50;99.90;;;;;;5041375;28;20080;-74
2022/06/07 05:26:18;;;;;;;20.50;13.00;;;13.50;99.90;;;;;;5024950;28;20028;-75
2022/06/07 05:28:44;;;;;;;21.17;14.23;;;13.50;99.90;;;;;;5029687;28;20033;-76
2022/06/07 05:31:10;;;;;;;22.52;14.90;;;13.50;99.90;;;;;;5042294;28;20033;-75
2022/06/07 05:33:36;;;;;;;22.65;14.63;;;13.50;99.90;;;;;;5026967;28;20032;-75
2022/06/07 05:36:04;;;;;;;21.05;13.38;;;13.50;99.90;;;;;;5044315;28;20048;-74
2022/06/07 05:38:30;;;;;;;24.52;15.18;;;13.50;99.90;;;;;;5047494;28;20506;-75
2022/06/07 05:40:55;;;;;;;23.75;15.55;;;13.50;99.90;;;;;;5042357;28;20041;-76
2022/06/07 05:43:21;;;;;;;23.58;16.13;;;13.50;99.90;;;;;;5047488;28;20045;-75
2022/06/07 05:45:53;;;;;;;25.60;15.90;;;13.50;99.90;;;;;;5043630;28;20052;-75
2022/06/07 05:48:19;;;;;;;20.88;14.90;;;13.50;99.90;;;;;;5047570;28;20550;-75
2022/06/07 05:50:50;;;;;;;22.67;16.08;;;13.50;99.90;;;;;;5027190;28;20123;-75
2022/06/07 05:53:17;;;;;;;25.23;16.95;;;13.50;99.90;;;;;;5029712;28;20037;-75
2022/06/07 05:55:43;;;;;;;22.70;15.88;;;13.60;99.90;;;;;;5044489;28;20116;-75
2022/06/07 05:58:09;;;;;;;25.77;17.15;;;13.50;99.90;;;;;;5029313;28;20058;-76
2022/06/07 06:00:35;;;;;;;26.02;16.95;;;13.50;99.90;;;;;;5040191;28;20032;-75
2022/06/07 06:03:01;;;;;;;23.85;16.58;;;13.50;99.90;;;;;;5041661;28;20066;-74
2022/06/07 06:05:27;;;;;;;30.60;19.98;;;13.50;99.90;;;;;;5044333;28;20483;-74
2022/06/07 06:10:37;;;;;;;35.60;19.95;;;13.50;99.90;;;;;;5042402;28;20079;-74
2022/06/07 06:13:03;;;;;;;29.20;19.02;;;13.50;99.90;;;;;;5043216;28;20028;-75
2022/06/07 06:15:28;;;;;;;25.33;16.27;;;13.60;99.90;;;;;;5027112;28;20148;-74
2022/06/07 06:17:55;;;;;;;26.52;16.52;;;13.60;99.90;;;;;;5048107;28;20067;-75
2022/06/07 06:20:22;;;;;;;27.88;18.83;;;13.60;99.90;;;;;;5047135;28;20033;-74
2022/06/07 06:22:48;;;;;;;25.63;17.60;;;13.70;99.90;;;;;;5045494;28;20074;-77
2022/06/07 06:25:14;;;;;;;28.23;18.23;;;13.70;99.90;;;;;;5028236;28;20033;-75
2022/06/07 06:27:40;;;;;;;28.45;17.92;;;13.70;99.90;;;;;;5027135;28;20162;-75
2022/06/07 06:30:07;;;;;;;24.38;16.63;;;13.70;99.90;;;;;;5050632;28;20446;-77
2022/06/07 06:32:33;;;;;;;28.42;18.40;;;13.80;99.90;;;;;;5027807;28;20036;-75
2022/06/07 06:34:59;;;;;;;30.63;18.27;;;13.80;99.90;;;;;;5049717;28;20118;-74
2022/06/07 06:37:25;;;;;;;26.95;17.42;;;13.90;99.90;;;;;;5048905;28;20029;-77
2022/06/07 06:39:51;;;;;;;33.17;19.88;;;13.90;99.90;;;;;;5057721;28;20044;-75
2022/06/07 06:42:17;;;;;;;27.40;18.20;;;14.00;99.90;;;;;;5044323;28;20433;-76
2022/06/07 06:44:42;;;;;;;31.30;20.88;;;14.00;99.90;;;;;;5051836;28;20079;-79
2022/06/07 06:47:08;;;;;;;27.77;18.38;;;14.00;99.90;;;;;;5046201;28;20438;-75
2022/06/07 06:49:34;;;;;;;22.67;16.35;;;14.00;99.90;;;;;;5053293;28;20111;-73
2022/06/07 06:51:59;;;;;;;29.08;17.88;;;14.10;99.90;;;;;;5053616;28;20040;-76
2022/06/07 06:54:26;;;;;;;24.92;15.88;;;14.10;99.90;;;;;;5041674;28;20029;-74
2022/06/07 06:56:51;;;;;;;23.55;13.93;;;14.20;99.90;;;;;;5051875;28;20060;-77
2022/06/07 06:59:18;;;;;;;23.98;15.40;;;14.20;99.90;;;;;;5033192;28;20068;-75
2022/06/07 07:01:44;;;;;;;20.83;13.70;;;14.20;99.90;;;;;;5045232;28;20041;-77
2022/06/07 07:04:16;;;;;;;18.52;12.45;;;14.20;99.90;;;;;;5029701;28;20028;-78
2022/06/07 07:06:42;;;;;;;25.65;16.88;;;14.20;99.90;;;;;;5045951;28;20036;-79
2022/06/07 07:09:09;;;;;;;25.00;16.45;;;14.30;99.90;;;;;;5034253;28;20032;-75
2022/06/07 07:11:41;;;;;;;18.48;13.82;;;14.30;99.90;;;;;;5032501;28;20794;-75
2022/06/07 07:14:08;;;;;;;22.25;13.35;;;14.40;99.90;;;;;;5035193;28;20136;-77
2022/06/07 07:16:39;;;;;;;19.45;13.68;;;14.40;99.90;;;;;;5053208;28;20108;-75
2022/06/07 07:19:05;;;;;;;18.75;12.20;;;14.40;99.90;;;;;;5051425;28;20730;-76
2022/06/07 07:21:34;;;;;;;21.88;14.77;;;14.40;99.90;;;;;;5046975;28;20043;-77
2022/06/07 07:24:01;;;;;;;21.03;14.00;;;14.40;99.90;;;;;;5045701;28;20037;-77
2022/06/07 07:26:30;;;;;;;18.40;12.18;;;14.40;99.90;;;;;;5043959;28;20032;-76
2022/06/07 07:28:56;;;;;;;17.98;13.38;;;14.40;99.90;;;;;;5050165;28;20453;-77
2022/06/07 07:31:24;;;;;;;17.20;13.13;;;14.50;99.90;;;;;;5027185;28;20036;-76
2022/06/07 07:33:51;;;;;;;17.35;11.25;;;14.50;99.90;;;;;;5050346;28;20039;-76
2022/06/07 07:36:18;;;;;;;15.73;11.80;;;14.50;99.90;;;;;;5030040;28;20120;-75
2022/06/07 07:38:44;;;;;;;18.88;11.65;;;14.50;99.90;;;;;;5052737;28;20044;-77
2022/06/07 07:41:37;;;;;;;19.15;11.77;;;14.60;99.90;;;;;;5052974;28;20037;-75
2022/06/07 07:44:06;;;;;;;13.50;9.90;;;14.60;99.90;;;;;;5031905;28;20124;-78
2022/06/07 07:46:35;;;;;;;15.68;9.82;;;14.60;99.90;;;;;;5049007;28;20033;-74
2022/06/07 07:49:02;;;;;;;13.27;10.18;;;14.70;99.90;;;;;;5048424;28;20033;-74
2022/06/07 07:51:36;;;;;;;12.75;9.00;;;14.70;99.90;;;;;;5032572;28;20029;-78
2022/06/07 07:54:04;;;;;;;8.15;5.13;;;14.70;99.90;;;;;;5046019;28;20036;-77
2022/06/07 07:56:31;;;;;;;9.05;6.15;;;14.70;99.90;;;;;;5050131;28;20033;-74
2022/06/07 07:58:57;;;;;;;6.13;5.07;;;14.80;99.90;;;;;;5047524;28;20029;-74
2022/06/07 08:01:26;;;;;;;4.47;3.35;;;14.80;99.90;;;;;;5031105;28;20893;-75
2022/06/07 08:03:54;;;;;;;4.55;2.58;;;14.80;99.90;;;;;;5048997;28;20558;-77
2022/06/07 08:06:22;;;;;;;3.08;2.22;;;14.90;99.90;;;;;;5049584;28;20086;-75
2022/06/07 08:08:50;;;;;;;2.60;1.50;;;14.90;99.90;;;;;;5032686;28;20112;-73
2022/06/07 08:11:18;;;;;;;3.30;1.80;;;14.90;99.90;;;;;;5046824;28;20752;-75
2022/06/07 08:13:44;;;;;;;1.60;0.90;;;14.80;99.90;;;;;;5024861;28;20040;-75
2022/06/07 08:16:10;;;;;;;1.77;1.20;;;14.90;99.90;;;;;;5045935;28;20029;-77
2022/06/07 08:18:37;;;;;;;1.85;1.02;;;14.90;99.90;;;;;;5044898;28;20037;-78
2022/06/07 08:21:07;;;;;;;1.40;1.00;;;14.90;99.90;;;;;;5051469;28;20070;-74
2022/06/07 08:23:35;;;;;;;2.00;1.30;;;15.00;99.90;;;;;;5043460;28;20052;-77
2022/06/07 08:26:03;;;;;;;1.70;1.23;;;15.00;99.90;;;;;;5042494;28;20114;-71
2022/06/07 08:28:30;;;;;;;1.67;1.13;;;14.90;99.90;;;;;;5048933;28;20815;-72
2022/06/07 08:30:56;;;;;;;2.13;1.23;;;14.90;99.90;;;;;;5044155;28;20039;-72
2022/06/07 08:38:56;;;;;;;1.20;0.90;;;14.90;99.90;;;;;;5049143;28;20130;-75
2022/06/07 08:41:27;;;;;;;0.65;0.63;;;15.00;99.90;;;;;;5049100;28;20893;-75
2022/06/07 08:44:02;;;;;;;0.88;0.60;;;15.00;99.90;;;;;;5048214;28;20136;-73
2022/06/07 08:46:33;;;;;;;0.73;0.57;;;15.00;99.90;;;;;;5055949;28;20465;-71
2022/06/07 08:49:00;;;;;;;1.10;0.60;;;15.00;99.90;;;;;;5048607;28;20025;-75
2022/06/07 08:51:37;;;;;;;0.70;0.60;;;15.00;99.90;;;;;;5047163;28;20033;-74
2022/06/07 08:54:19;;;;;;;1.65;0.77;;;15.00;99.90;;;;;;5064134;28;20056;-74
2022/06/07 08:56:45;;;;;;;1.77;0.50;;;15.00;99.90;;;;;;5066298;28;20119;-71
2022/06/07 08:59:19;;;;;;;0.38;0.38;;;15.10;99.90;;;;;;5069101;28;20104;-75
2022/06/07 09:02:14;;;;;;;0.50;0.40;;;15.10;99.90;;;;;;5059826;28;20037;-75
2022/06/07 09:04:40;;;;;;;0.43;0.40;;;15.20;99.90;;;;;;5048026;28;20045;-73
2022/06/07 09:07:19;;;;;;;0.63;0.30;;;15.30;99.90;;;;;;5048670;28;20036;-76
2022/06/07 09:12:59;;;;;;;;;;;15.40;99.90;;;;;;4964231;28;20034;-71
2022/06/07 09:15:29;;;;;;;0.57;0.30;;;15.50;99.90;;;;;;4967334;28;19914;-70
2022/06/07 09:17:58;;;;;;;1.00;0.40;;;15.40;99.90;;;;;;4967285;28;20097;-74
2022/06/07 09:20:31;;;;;;;0.40;0.20;;;15.50;99.90;;;;;;4967069;28;20628;-72
2022/06/07 09:23:00;;;;;;;0.80;0.30;;;15.60;99.90;;;;;;4967526;28;20340;-72
2022/06/07 09:25:28;;;;;;;;;;;15.60;99.90;;;;;;4951422;28;20062;-73
2022/06/07 09:27:57;;;;;;;0.30;0.30;;;15.70;99.90;;;;;;4967148;28;19920;-71
2022/06/07 09:30:28;;;;;;;0.60;0.20;;;15.70;99.90;;;;;;4969616;28;20045;-70
2022/06/07 09:32:54;;;;;;;0.20;0.20;;;15.70;99.90;;;;;;4973607;28;20026;-73
2022/06/07 09:35:42;;;;;;;0.20;0.20;;;15.70;99.90;;;;;;4967784;28;20040;-78
2022/06/07 09:38:15;;;;;;;0.30;0.30;;;15.70;99.90;;;;;;4962398;28;20034;-71
2022/06/07 09:40:53;;;;;;;0.70;0.50;;;15.70;99.90;;;;;;4965458;28;20031;-74
2022/06/07 09:43:29;;;;;;;1.23;0.63;;;15.70;99.90;;;;;;4966248;28;20039;-73
2022/06/07 09:46:06;;;;;;;1.65;1.00;;;15.60;99.90;;;;;;4954138;28;20047;-73
2022/06/07 09:48:38;;;;;;;1.23;1.00;;;15.70;99.90;;;;;;5004929;28;20052;-71
2022/06/07 09:51:06;;;;;;;2.92;1.60;;;15.70;99.90;;;;;;5048290;28;20036;-71
2022/06/07 09:53:35;;;;;;;2.15;1.50;;;15.70;99.90;;;;;;5047614;28;20061;-74
2022/06/07 09:56:13;;;;;;;2.25;1.80;;;15.70;99.90;;;;;;5044862;28;20090;-75
2022/06/07 09:59:03;;;;;;;1.85;1.27;;;15.70;99.90;;;;;;5047853;28;20025;-71
2022/06/07 10:01:38;;;;;;;0.80;0.40;;;15.70;99.90;;;;;;5045670;28;20045;-72
2022/06/07 10:04:35;;;;;;;0.60;0.60;;;15.70;99.90;;;;;;5027739;28;20069;-73
2022/06/07 10:07:07;;;;;;;0.70;0.50;;;15.80;99.90;;;;;;5024110;28;20158;-71
2022/06/07 10:09:48;;;;;;;1.13;0.80;;;15.70;99.90;;;;;;5028771;28;20029;-73
2022/06/07 10:12:17;;;;;;;0.68;0.65;;;15.80;99.90;;;;;;5047426;28;20045;-74
2022/06/07 10:15:16;;;;;;;1.40;0.65;;;15.80;99.90;;;;;;5045864;28;20128;-79
2022/06/07 10:17:54;;;;;;;1.23;0.70;;;15.80;99.90;;;;;;5027804;28;20029;-77
2022/06/07 10:21:01;;;;;;;3.63;1.17;;;15.90;99.90;;;;;;5045564;28;20044;-74
2022/06/07 10:23:59;;;;;;;2.13;0.90;;;16.00;99.90;;;;;;4984353;28;20046;-73
2022/06/07 10:26:48;;;;;;;4.05;1.10;;;16.00;99.90;;;;;;4983696;28;20038;-71
2022/06/07 10:29:47;;;;;;;2.63;0.90;;;16.00;99.90;;;;;;4985346;28;20044;-76
2022/06/07 10:32:18;;;;;;;5.22;1.50;;;16.10;99.90;;;;;;4969344;28;20034;-72
2022/06/07 10:34:51;;;;;;;1.92;0.82;;;16.20;99.90;;;;;;4970491;28;20042;-75
2022/06/07 10:37:32;;;;;;;1.63;0.50;;;16.20;99.90;;;;;;4981368;28;20173;-75
2022/06/07 10:40:16;;;;;;;2.05;0.70;;;16.20;99.90;;;;;;4984617;28;20065;-76
2022/06/07 10:42:53;;;;;;;2.83;1.05;;;16.20;99.90;;;;;;4985583;28;20034;-72
2022/06/07 10:45:32;;;;;;;2.45;1.00;;;16.20;99.90;;;;;;4977058;28;20047;-73
2022/06/07 10:48:34;;;;;;;3.35;0.90;;;16.10;99.90;;;;;;4952214;28;20049;-75
2022/06/07 10:54:30;;;;;;;3.83;1.30;;;16.00;99.90;;;;;;4954038;28;20037;-76
2022/06/07 10:57:18;;;;;;;6.53;2.05;;;16.00;99.90;;;;;;4965866;28;20042;-79
2022/06/07 10:59:44;;;;;;;6.10;2.15;;;16.00;99.90;;;;;;4963617;28;20038;-77
2022/06/07 11:02:24;;;;;;;4.50;2.05;;;16.00;99.90;;;;;;5006102;28;20520;-77
2022/06/07 11:10:42;;;;;;;5.65;1.85;;;15.90;99.90;;;;;;5007777;28;20125;-75
2022/06/07 11:13:35;;;;;;;5.43;1.90;;;15.90;99.90;;;;;;5007068;28;20459;-74
2022/06/07 11:16:24;;;;;;;2.63;1.23;;;15.90;99.90;;;;;;5008391;28;20037;-77
2022/06/07 11:18:50;;;;;;;2.70;1.08;;;15.90;99.90;;;;;;5008208;28;20034;-76
2022/06/07 11:21:42;;;;;;;2.70;0.98;;;15.90;99.90;;;;;;5008467;28;20481;-77
2022/06/07 11:24:22;;;;;;;2.72;0.80;;;15.90;99.90;;;;;;5010437;28;20068;-73
2022/06/07 11:26:50;;;;;;;3.15;0.90;;;15.80;99.90;;;;;;5013295;28;20034;-72
2022/06/07 11:29:27;;;;;;;2.08;0.60;;;15.90;99.90;;;;;;5011301;28;20038;-76
2022/06/07 11:31:53;;;;;;;1.05;0.50;;;15.90;99.90;;;;;;5012240;28;20420;-72
2022/06/07 11:34:34;;;;;;;1.83;0.73;;;15.90;99.90;;;;;;5012086;28;20700;-79
2022/06/07 11:37:15;;;;;;;2.05;0.50;;;15.90;99.90;;;;;;5009374;28;20551;-74
2022/06/07 11:39:40;;;;;;;1.88;0.60;;;15.90;99.90;;;;;;5009928;28;20034;-75
2022/06/07 11:42:20;;;;;;;3.55;1.00;;;15.90;99.90;;;;;;5010830;28;20413;-74
2022/06/07 11:45:24;;;;;;;3.53;1.08;;;15.90;99.90;;;;;;5023121;28;20053;-74
2022/06/07 11:48:15;;;;;;;3.80;1.08;;;15.80;99.90;;;;;;5033608;28;20045;-73
2022/06/07 11:51:12;;;;;;;5.13;1.30;;;15.80;99.90;;;;;;5043652;28;20032;-75
2022/06/07 11:53:38;;;;;;;5.93;1.48;;;15.80;99.90;;;;;;5059238;28;20040;-74
2022/06/07 11:56:11;;;;;;;9.27;1.80;;;15.80;99.90;;;;;;5032681;28;20029;-73
2022/06/07 11:58:57;;;;;;;6.82;1.83;;;15.80;99.90;;;;;;5044918;28;20052;-75
2022/06/07 12:01:45;;;;;;;7.93;2.13;;;15.70;99.90;;;;;;5035266;28;20048;-73
2022/06/07 12:04:41;;;;;;;8.40;2.08;;;15.50;99.90;;;;;;5050249;28;20029;-73
2022/06/07 12:07:17;;;;;;;10.18;2.60;;;15.50;99.90;;;;;;5050653;28;20509;-76
2022/06/07 12:09:57;;;;;;;11.38;2.97;;;15.50;99.90;;;;;;5065947;28;20044;-74
2022/06/07 12:12:31;;;;;;;11.52;2.78;;;15.60;99.90;;;;;;5050011;28;20770;-74
2022/06/07 12:15:17;;;;;;;9.15;2.55;;;15.70;99.90;;;;;;5032262;28;20029;-73
2022/06/07 12:18:03;;;;;;;10.98;2.90;;;15.70;99.90;;;;;;5049927;28;20047;-73
2022/06/07 12:20:37;;;;;;;9.90;2.63;;;15.70;99.90;;;;;;5036238;28;20028;-74
2022/06/07 12:23:19;;;;;;;10.65;2.53;;;15.70;99.90;;;;;;5028242;28;20548;-76
2022/06/07 12:26:00;;;;;;;9.57;2.80;;;15.70;99.90;;;;;;5040543;28;20136;-75
2022/06/07 12:28:32;;;;;;;10.00;2.33;;;15.80;99.90;;;;;;5047832;28;20139;-74
2022/06/07 12:31:10;;;;;;;12.90;2.92;;;15.90;99.90;;;;;;5048771;28;20021;-74
2022/06/07 12:33:35;;;;;;;9.48;2.88;;;16.00;99.90;;;;;;5046461;28;20059;-73
2022/06/07 12:36:24;;;;;;;9.93;3.00;;;16.00;99.90;;;;;;5045774;28;20029;-74
2022/06/07 12:38:51;;;;;;;9.07;2.60;;;16.10;99.90;;;;;;5037441;28;20467;-73
2022/06/07 12:41:21;;;;;;;9.13;2.38;;;16.10;99.90;;;;;;5049681;28;20049;-77
2022/06/07 12:43:52;;;;;;;7.63;2.15;;;16.00;99.90;;;;;;5044750;28;20793;-73
2022/06/07 12:46:29;;;;;;;7.82;2.38;;;16.00;99.90;;;;;;5031330;28;20045;-78
2022/06/07 12:48:58;;;;;;;8.27;2.03;;;16.10;99.90;;;;;;5049183;28;20071;-75
2022/06/07 12:51:29;;;;;;;11.23;2.53;;;16.00;99.90;;;;;;5049058;28;20033;-74
2022/06/07 12:54:09;;;;;;;6.93;2.22;;;16.00;99.90;;;;;;5049293;28;20047;-74
2022/06/07 12:56:41;;;;;;;8.88;2.38;;;16.10;99.90;;;;;;5048940;28;20522;-74
2022/06/07 12:59:33;;;;;;;8.10;2.08;;;16.10;99.90;;;;;;5049040;28;20037;-80
2022/06/07 13:01:59;;;;;;;8.65;2.42;;;16.20;99.90;;;;;;5047788;28;20612;-73
2022/06/07 13:04:37;;;;;;;7.22;2.20;;;16.20;99.90;;;;;;5048195;28;20060;-79
2022/06/07 13:07:19;;;;;;;6.95;1.75;;;16.20;99.90;;;;;;5031130;28;20053;-74
2022/06/07 13:09:48;;;;;;;8.02;2.20;;;16.20;99.90;;;;;;5043756;28;20025;-74
2022/06/07 13:12:36;;;;;;;6.78;1.70;;;16.10;99.90;;;;;;5040951;28;20044;-73
2022/06/07 13:15:11;;;;;;;5.78;1.55;;;16.10;99.90;;;;;;5027428;28;20803;-74
2022/06/07 13:17:41;;;;;;;8.38;1.77;;;16.00;99.90;;;;;;5032056;28;20040;-76
2022/06/07 13:20:22;;;;;;;8.68;2.25;;;16.10;99.90;;;;;;5043145;28;20021;-72
2022/06/07 13:22:48;;;;;;;9.93;2.38;;;16.20;99.90;;;;;;5027454;28;20522;-72
2022/06/07 13:25:30;;;;;;;8.07;2.00;;;16.20;99.90;;;;;;5029841;28;20060;-78
2022/06/07 13:28:05;;;;;;;12.45;2.30;;;16.30;99.90;;;;;;5028682;28;20026;-76